sensor_id;sensor_type;location;lat;lon;timestamp;pressure;altitude;pressure_sealevel;temperature;humidity
33496;BME280;19836;55.812;37.560;2023-02-13T00:00:36;99907.53;;;-4.66;70.98
33496;BME280;19836;55.812;37.560;2023-02-13T00:03:03;99900.63;;;-4.64;70.69
33496;BME280;19836;55.812;37.560;2023-02-13T00:05:29;99899.03;;;-4.59;70.58
33496;BME280;19836;55.812;37.560;2023-02-13T00:15:22;99873.38;;;-4.44;70.99
33496;BME280;19836;55.812;37.560;2023-02-13T00:17:50;99865.53;;;-4.44;70.13
33496;BME280;19836;55.812;37.560;2023-02-13T00:20:16;99871.66;;;-4.43;70.37
33496;BME280;19836;55.812;37.560;2023-02-13T00:43:02;99827.06;;;-4.48;69.92
33496;BME280;19836;55.812;37.560;2023-02-13T00:45:28;99823.59;;;-4.47;70.60
33496;BME280;19836;55.812;37.560;2023-02-13T00:47:54;99815.69;;;-4.50;70.46
33496;BME280;19836;55.812;37.560;2023-02-13T00:50:23;99803.72;;;-4.42;70.55
33496;BME280;19836;55.812;37.560;2023-02-13T00:52:50;99812.50;;;-4.40;69.97
33496;BME280;19836;55.812;37.560;2023-02-13T00:55:38;99816.13;;;-4.35;70.01
33496;BME280;19836;55.812;37.560;2023-02-13T00:58:06;99815.34;;;-4.32;70.58
33496;BME280;19836;55.812;37.560;2023-02-13T01:00:32;99816.31;;;-4.29;70.91
33496;BME280;19836;55.812;37.560;2023-02-13T01:51:46;99730.53;;;-4.11;70.95
33496;BME280;19836;55.812;37.560;2023-02-13T01:54:17;99722.69;;;-4.10;70.94
33496;BME280;19836;55.812;37.560;2023-02-13T01:56:51;99719.22;;;-4.10;70.47
33496;BME280;19836;55.812;37.560;2023-02-13T01:59:30;99715.75;;;-4.09;70.86
33496;BME280;19836;55.812;37.560;2023-02-13T02:02:38;99706.22;;;-4.07;70.79
33496;BME280;19836;55.812;37.560;2023-02-13T02:05:50;99718.47;;;-4.05;70.80
33496;BME280;19836;55.812;37.560;2023-02-13T02:25:02;99691.91;;;-3.88;70.23
33496;BME280;19836;55.812;37.560;2023-02-13T02:27:47;99688.53;;;-3.83;70.78
33496;BME280;19836;55.812;37.560;2023-02-13T02:59:36;99648.53;;;-3.79;70.64
33496;BME280;19836;55.812;37.560;2023-02-13T04:00:21;99554.75;;;-3.21;72.20
33496;BME280;19836;55.812;37.560;2023-02-13T04:04:09;99554.00;;;-3.14;72.43
33496;BME280;19836;55.812;37.560;2023-02-13T04:07:09;99543.59;;;-3.11;73.12
33496;BME280;19836;55.812;37.560;2023-02-13T04:10:51;99546.44;;;-2.99;72.84
33496;BME280;19836;55.812;37.560;2023-02-13T04:13:35;99536.94;;;-2.94;72.94
33496;BME280;19836;55.812;37.560;2023-02-13T04:16:15;99526.53;;;-2.91;73.28
33496;BME280;19836;55.812;37.560;2023-02-13T04:18:44;99528.41;;;-2.84;73.00
33496;BME280;19836;55.812;37.560;2023-02-13T04:21:26;99521.50;;;-2.79;72.85
33496;BME280;19836;55.812;37.560;2023-02-13T04:23:52;99505.84;;;-2.76;73.18
33496;BME280;19836;55.812;37.560;2023-02-13T04:26:42;99492.78;;;-2.73;73.00
33496;BME280;19836;55.812;37.560;2023-02-13T04:29:08;99489.31;;;-2.73;73.27
33496;BME280;19836;55.812;37.560;2023-02-13T04:31:34;99484.06;;;-2.72;72.99
33496;BME280;19836;55.812;37.560;2023-02-13T04:34:01;99485.03;;;-2.67;73.39
33496;BME280;19836;55.812;37.560;2023-02-13T04:36:28;99489.47;;;-2.63;73.43
33496;BME280;19836;55.812;37.560;2023-02-13T04:38:53;99492.19;;;-2.57;73.41
33496;BME280;19836;55.812;37.560;2023-02-13T04:41:19;99479.94;;;-2.58;73.64
33496;BME280;19836;55.812;37.560;2023-02-13T04:43:45;99474.69;;;-2.58;73.91
33496;BME280;19836;55.812;37.560;2023-02-13T04:46:11;99464.25;;;-2.57;73.87
33496;BME280;19836;55.812;37.560;2023-02-13T04:48:37;99464.34;;;-2.51;73.82
33496;BME280;19836;55.812;37.560;2023-02-13T04:51:03;99469.63;;;-2.49;74.48
33496;BME280;19836;55.812;37.560;2023-02-13T04:53:29;99461.72;;;-2.51;74.30
33496;BME280;19836;55.812;37.560;2023-02-13T04:55:56;99452.13;;;-2.50;74.49
33496;BME280;19836;55.812;37.560;2023-02-13T04:58:22;99443.41;;;-2.46;74.07
33496;BME280;19836;55.812;37.560;2023-02-13T05:08:08;99429.59;;;-2.36;74.17
33496;BME280;19836;55.812;37.560;2023-02-13T05:16:01;99425.38;;;-2.28;73.86
33496;BME280;19836;55.812;37.560;2023-02-13T05:50:24;99419.47;;;-2.12;73.41
33496;BME280;19836;55.812;37.560;2023-02-13T06:07:31;99403.88;;;-2.03;72.95
33496;BME280;19836;55.812;37.560;2023-02-13T06:10:11;99401.16;;;-2.09;72.97
33496;BME280;19836;55.812;37.560;2023-02-13T06:28:00;99406.56;;;-1.97;72.59
33496;BME280;19836;55.812;37.560;2023-02-13T06:30:27;99417.16;;;-1.91;72.55
33496;BME280;19836;55.812;37.560;2023-02-13T06:32:53;99409.38;;;-1.85;72.64
33496;BME280;19836;55.812;37.560;2023-02-13T06:35:19;99397.09;;;-1.86;72.50
33496;BME280;19836;55.812;37.560;2023-02-13T06:37:45;99391.84;;;-1.86;72.50
33496;BME280;19836;55.812;37.560;2023-02-13T06:40:12;99374.34;;;-1.87;72.71
33496;BME280;19836;55.812;37.560;2023-02-13T06:42:39;99383.06;;;-1.88;72.58
33496;BME280;19836;55.812;37.560;2023-02-13T06:45:07;99381.31;;;-1.89;72.63
33496;BME280;19836;55.812;37.560;2023-02-13T06:51:07;99371.81;;;-1.80;72.70
33496;BME280;19836;55.812;37.560;2023-02-13T06:53:33;99373.56;;;-1.80;72.68
33496;BME280;19836;55.812;37.560;2023-02-13T07:05:09;99357.97;;;-1.67;72.74
33496;BME280;19836;55.812;37.560;2023-02-13T07:08:03;99351.03;;;-1.62;73.14
33496;BME280;19836;55.812;37.560;2023-02-13T07:10:49;99350.19;;;-1.56;72.33
33496;BME280;19836;55.812;37.560;2023-02-13T07:13:34;99355.44;;;-1.56;72.49
33496;BME280;19836;55.812;37.560;2023-02-13T07:16:09;99347.66;;;-1.50;72.33
33496;BME280;19836;55.812;37.560;2023-02-13T07:18:36;99340.72;;;-1.45;72.75
33496;BME280;19836;55.812;37.560;2023-02-13T07:21:42;99339.94;;;-1.35;72.66
33496;BME280;19836;55.812;37.560;2023-02-13T07:48:34;99280.81;;;-0.82;71.75
33496;BME280;19836;55.812;37.560;2023-02-13T07:51:04;99293.09;;;-0.82;71.58
33496;BME280;19836;55.812;37.560;2023-02-13T07:53:42;99290.53;;;-0.72;71.81
33496;BME280;19836;55.812;37.560;2023-02-13T07:57:26;99297.53;;;-0.74;71.56
33496;BME280;19836;55.812;37.560;2023-02-13T07:59:51;99289.66;;;-0.71;71.84
33496;BME280;19836;55.812;37.560;2023-02-13T08:02:18;99295.81;;;-0.69;71.95
33496;BME280;19836;55.812;37.560;2023-02-13T08:04:46;99292.41;;;-0.57;71.99
33496;BME280;19836;55.812;37.560;2023-02-13T08:07:32;99293.38;;;-0.39;71.73
33496;BME280;19836;55.812;37.560;2023-02-13T08:09:58;99288.09;;;-0.42;72.20
33496;BME280;19836;55.812;37.560;2023-02-13T08:12:43;99288.13;;;-0.39;71.78
33496;BME280;19836;55.812;37.560;2023-02-13T08:15:14;99287.25;;;-0.38;72.22
33496;BME280;19836;55.812;37.560;2023-02-13T08:25:51;99260.16;;;-0.16;71.58
33496;BME280;19836;55.812;37.560;2023-02-13T08:28:17;99267.19;;;-0.17;71.66
33496;BME280;19836;55.812;37.560;2023-02-13T08:33:44;99248.78;;;-0.06;72.18
33496;BME280;19836;55.812;37.560;2023-02-13T09:01:25;99212.03;;;0.45;72.21
33496;BME280;19836;55.812;37.560;2023-02-13T09:04:50;99215.56;;;0.45;71.83
33496;BME280;19836;55.812;37.560;2023-02-13T09:07:16;99218.19;;;0.47;72.19
33496;BME280;19836;55.812;37.560;2023-02-13T09:09:42;99212.03;;;0.45;72.35
33496;BME280;19836;55.812;37.560;2023-02-13T09:12:08;99214.69;;;0.51;72.32
33496;BME280;19836;55.812;37.560;2023-02-13T09:14:34;99204.13;;;0.54;72.50
33496;BME280;19836;55.812;37.560;2023-02-13T09:17:00;99198.88;;;0.60;72.15
33496;BME280;19836;55.812;37.560;2023-02-13T09:19:27;99202.38;;;0.59;72.15
33496;BME280;19836;55.812;37.560;2023-02-13T09:28:19;99202.41;;;0.68;71.91
33496;BME280;19836;55.812;37.560;2023-02-13T13:12:10;98905.47;;;2.66;73.47
33496;BME280;19836;55.812;37.560;2023-02-13T13:15:09;98903.72;;;2.65;73.55
33496;BME280;19836;55.812;37.560;2023-02-13T13:20:39;98895.81;;;2.63;73.75
33496;BME280;19836;55.812;37.560;2023-02-13T13:29:33;98902.22;;;2.46;74.33
33496;BME280;19836;55.812;37.560;2023-02-13T13:32:05;98902.31;;;2.38;74.58
33496;BME280;19836;55.812;37.560;2023-02-13T13:51:15;98875.97;;;2.31;76.10
33496;BME280;19836;55.812;37.560;2023-02-13T13:56:23;98872.53;;;2.20;76.61
33496;BME280;19836;55.812;37.560;2023-02-13T13:58:50;98876.97;;;2.19;76.99
33496;BME280;19836;55.812;37.560;2023-02-13T14:01:35;98868.16;;;2.17;77.29
33496;BME280;19836;55.812;37.560;2023-02-13T14:04:36;98872.59;;;2.17;77.55
33496;BME280;19836;55.812;37.560;2023-02-13T15:25:50;98749.38;;;2.10;80.47
33496;BME280;19836;55.812;37.560;2023-02-13T17:24:45;98570.69;;;2.59;81.92
33496;BME280;19836;55.812;37.560;2023-02-13T17:31:26;98553.03;;;2.61;82.14
33496;BME280;19836;55.812;37.560;2023-02-13T17:34:05;98546.91;;;2.59;81.95
33496;BME280;19836;55.812;37.560;2023-02-13T17:41:57;98526.59;;;2.61;82.03
33496;BME280;19836;55.812;37.560;2023-02-13T17:44:36;98526.59;;;2.61;82.17
33496;BME280;19836;55.812;37.560;2023-02-13T17:47:09;98517.81;;;2.59;82.28
33496;BME280;19836;55.812;37.560;2023-02-13T17:49:35;98515.19;;;2.57;82.54
33496;BME280;19836;55.812;37.560;2023-02-13T17:52:01;98506.47;;;2.54;82.65
33496;BME280;19836;55.812;37.560;2023-02-13T17:54:30;98510.06;;;2.50;82.87
33496;BME280;19836;55.812;37.560;2023-02-13T17:57:05;98510.91;;;2.52;82.85
33496;BME280;19836;55.812;37.560;2023-02-13T17:59:31;98502.06;;;2.54;82.81
33496;BME280;19836;55.812;37.560;2023-02-13T18:02:01;98512.53;;;2.59;83.12
33496;BME280;19836;55.812;37.560;2023-02-13T18:04:27;98503.69;;;2.60;83.34
33496;BME280;19836;55.812;37.560;2023-02-13T18:06:56;98493.13;;;2.60;83.34
33496;BME280;19836;55.812;37.560;2023-02-13T18:09:23;98497.50;;;2.61;83.50
33496;BME280;19836;55.812;37.560;2023-02-13T18:11:49;98489.56;;;2.61;83.36
33496;BME280;19836;55.812;37.560;2023-02-13T18:14:22;98480.88;;;2.56;83.31
33496;BME280;19836;55.812;37.560;2023-02-13T18:16:58;98480.00;;;2.55;83.37
33496;BME280;19836;55.812;37.560;2023-02-13T18:19:32;98489.66;;;2.58;83.52
33496;BME280;19836;55.812;37.560;2023-02-13T18:21:59;98478.19;;;2.57;83.46
33496;BME280;19836;55.812;37.560;2023-02-13T18:24:32;98465.84;;;2.59;83.46
33496;BME280;19836;55.812;37.560;2023-02-13T18:27:02;98463.13;;;2.61;83.61
33496;BME280;19836;55.812;37.560;2023-02-13T18:29:55;98460.47;;;2.62;83.77
33496;BME280;19836;55.812;37.560;2023-02-13T18:46:56;98423.47;;;2.62;83.72
33496;BME280;19836;55.812;37.560;2023-02-13T18:50:37;98419.06;;;2.63;83.88
33496;BME280;19836;55.812;37.560;2023-02-13T19:01:14;98397.00;;;2.64;83.85
33496;BME280;19836;55.812;37.560;2023-02-13T19:07:40;98397.78;;;2.69;83.94
33496;BME280;19836;55.812;37.560;2023-02-13T19:10:08;98388.16;;;2.65;83.87
33496;BME280;19836;55.812;37.560;2023-02-13T19:12:35;98383.72;;;2.67;84.19
33496;BME280;19836;55.812;37.560;2023-02-13T19:15:02;98376.66;;;2.66;84.03
33496;BME280;19836;55.812;37.560;2023-02-13T19:17:29;98378.44;;;2.67;84.39
33496;BME280;19836;55.812;37.560;2023-02-13T19:19:55;98367.78;;;2.70;84.26
33496;BME280;19836;55.812;37.560;2023-02-13T19:22:21;98374.75;;;2.74;84.27
33496;BME280;19836;55.812;37.560;2023-02-13T19:24:48;98374.75;;;2.74;84.11
33496;BME280;19836;55.812;37.560;2023-02-13T19:27:40;98362.44;;;2.73;84.24
33496;BME280;19836;55.812;37.560;2023-02-13T19:30:12;98356.28;;;2.71;84.43
33496;BME280;19836;55.812;37.560;2023-02-13T19:37:03;98357.00;;;2.80;84.55
33496;BME280;19836;55.812;37.560;2023-02-13T19:39:47;98357.94;;;2.78;84.52
33496;BME280;19836;55.812;37.560;2023-02-13T19:43:17;98352.63;;;2.78;84.59
33496;BME280;19836;55.812;37.560;2023-02-13T19:45:44;98356.97;;;2.82;84.29
33496;BME280;19836;55.812;37.560;2023-02-13T19:48:37;98358.69;;;2.83;84.62
33496;BME280;19836;55.812;37.560;2023-02-13T19:51:29;98358.75;;;2.80;84.46
33496;BME280;19836;55.812;37.560;2023-02-13T20:07:53;98368.47;;;2.79;84.47
33496;BME280;19836;55.812;37.560;2023-02-13T20:10:26;98369.41;;;2.77;84.61
33496;BME280;19836;55.812;37.560;2023-02-13T20:12:52;98357.94;;;2.78;84.50
33496;BME280;19836;55.812;37.560;2023-02-13T20:15:20;98361.41;;;2.80;84.46
33496;BME280;19836;55.812;37.560;2023-02-13T20:17:46;98362.19;;;2.83;84.78
33496;BME280;19836;55.812;37.560;2023-02-13T20:20:12;98353.28;;;2.87;84.54
33496;BME280;19836;55.812;37.560;2023-02-13T20:22:38;98361.19;;;2.89;84.42
33496;BME280;19836;55.812;37.560;2023-02-13T20:25:05;98347.94;;;2.92;84.51
33496;BME280;19836;55.812;37.560;2023-02-13T20:27:30;98354.03;;;2.94;84.46
33496;BME280;19836;55.812;37.560;2023-02-13T20:29:57;98354.84;;;2.96;84.54
33496;BME280;19836;55.812;37.560;2023-02-13T20:32:25;98356.63;;;2.97;84.40
33496;BME280;19836;55.812;37.560;2023-02-13T20:34:51;98359.19;;;3.00;84.17
33496;BME280;19836;55.812;37.560;2023-02-13T20:37:18;98361.81;;;3.00;83.87
33496;BME280;19836;55.812;37.560;2023-02-13T20:39:46;98363.56;;;3.01;84.08
33496;BME280;19836;55.812;37.560;2023-02-13T20:42:12;98352.09;;;3.02;83.99
33496;BME280;19836;55.812;37.560;2023-02-13T20:44:38;98362.69;;;3.02;83.74
33496;BME280;19836;55.812;37.560;2023-02-13T20:47:04;98364.44;;;3.01;83.84
33496;BME280;19836;55.812;37.560;2023-02-13T20:49:30;98364.47;;;3.00;83.78
33496;BME280;19836;55.812;37.560;2023-02-13T20:51:56;98363.63;;;2.99;83.71
33496;BME280;19836;55.812;37.560;2023-02-13T20:54:22;98366.22;;;3.01;83.67
33496;BME280;19836;55.812;37.560;2023-02-13T20:56:48;98369.69;;;3.04;83.78
33496;BME280;19836;55.812;37.560;2023-02-13T20:59:13;98374.03;;;3.07;83.78
33496;BME280;19836;55.812;37.560;2023-02-13T21:01:39;98368.69;;;3.08;83.59
33496;BME280;19836;55.812;37.560;2023-02-13T21:04:09;98364.41;;;3.03;83.58
33496;BME280;19836;55.812;37.560;2023-02-13T21:06:44;98364.47;;;3.00;83.70
33496;BME280;19836;55.812;37.560;2023-02-13T21:09:11;98354.81;;;2.99;83.57
33496;BME280;19836;55.812;37.560;2023-02-13T21:11:39;98367.25;;;2.94;83.64
33496;BME280;19836;55.812;37.560;2023-02-13T21:14:09;98370.81;;;2.93;83.57
33496;BME280;19836;55.812;37.560;2023-02-13T21:16:37;98383.94;;;2.96;83.56
33496;BME280;19836;55.812;37.560;2023-02-13T21:19:12;98376.84;;;2.99;83.54
33496;BME280;19836;55.812;37.560;2023-02-13T21:21:39;98380.44;;;2.97;83.45
33496;BME280;19836;55.812;37.560;2023-02-13T21:24:13;98381.25;;;2.99;83.53
33496;BME280;19836;55.812;37.560;2023-02-13T21:26:40;98381.13;;;3.03;83.44
33496;BME280;19836;55.812;37.560;2023-02-13T21:29:07;98390.78;;;3.06;83.49
33496;BME280;19836;55.812;37.560;2023-02-13T21:31:38;98379.31;;;3.07;82.94
33496;BME280;19836;55.812;37.560;2023-02-13T21:34:07;98389.00;;;3.08;82.88
33496;BME280;19836;55.812;37.560;2023-02-13T21:36:36;98367.84;;;3.08;82.45
33496;BME280;19836;55.812;37.560;2023-02-13T21:39:08;98366.97;;;3.06;82.24
33496;BME280;19836;55.812;37.560;2023-02-13T21:41:35;98370.63;;;3.02;82.14
33496;BME280;19836;55.812;37.560;2023-02-13T21:44:02;98368.94;;;2.98;81.78
33496;BME280;19836;55.812;37.560;2023-02-13T21:46:29;98371.59;;;2.98;81.81
33496;BME280;19836;55.812;37.560;2023-02-13T21:49:01;98381.19;;;3.02;81.55
33496;BME280;19836;55.812;37.560;2023-02-13T21:51:29;98370.63;;;3.02;81.67
33496;BME280;19836;55.812;37.560;2023-02-13T23:14:52;98415.13;;;2.82;80.21
33496;BME280;19836;55.812;37.560;2023-02-13T23:17:18;98416.00;;;2.81;80.08
33496;BME280;19836;55.812;37.560;2023-02-13T23:20:03;98417.88;;;2.76;79.82
33496;BME280;19836;55.812;37.560;2023-02-13T23:22:29;98429.38;;;2.75;79.71
33496;BME280;19836;55.812;37.560;2023-02-13T23:24:55;98431.09;;;2.76;79.65
33496;BME280;19836;55.812;37.560;2023-02-13T23:27:21;98423.22;;;2.74;79.56
33496;BME280;19836;55.812;37.560;2023-02-13T23:29:47;98428.44;;;2.77;79.27
33496;BME280;19836;55.812;37.560;2023-02-13T23:32:13;98428.38;;;2.80;79.42
33496;BME280;19836;55.812;37.560;2023-02-13T23:34:39;98430.06;;;2.84;79.40
33496;BME280;19836;55.812;37.560;2023-02-13T23:37:05;98420.31;;;2.86;78.85
33496;BME280;19836;55.812;37.560;2023-02-13T23:39:31;98436.16;;;2.88;79.08
33496;BME280;19836;55.812;37.560;2023-02-13T23:41:58;98430.78;;;2.91;79.01
33496;BME280;19836;55.812;37.560;2023-02-13T23:44:24;98438.69;;;2.94;78.54
33496;BME280;19836;55.812;37.560;2023-02-13T23:46:49;98430.75;;;2.94;78.50
33496;BME280;19836;55.812;37.560;2023-02-13T23:49:16;98439.59;;;2.93;78.52
33496;BME280;19836;55.812;37.560;2023-02-13T23:51:42;98429.84;;;2.93;77.88
